createdAt,value
2023-05-19T00:00:37.331Z,70.60
2023-05-19T00:03:21.999Z,69.57
2023-05-19T00:05:54.104Z,69.32
2023-05-19T00:08:24.801Z,69.35
2023-05-19T00:11:02.926Z,69.84
2023-05-19T00:13:31.465Z,69.92
2023-05-19T00:16:00.240Z,70.56
2023-05-19T00:18:29.988Z,70.28
2023-05-19T00:21:02.539Z,70.61
2023-05-19T00:23:35.713Z,70.71
2023-05-19T00:26:08.597Z,70.87
2023-05-19T00:28:36.853Z,71.17
2023-05-19T00:31:07.664Z,71.38
2023-05-19T00:33:39.203Z,71.64
2023-05-19T00:36:16.311Z,71.64
2023-05-19T00:38:47.686Z,71.60
2023-05-19T00:41:17.984Z,71.37
2023-05-19T00:43:46.705Z,71.80
2023-05-19T00:46:19.759Z,71.60
2023-05-19T00:48:53.227Z,71.82
2023-05-19T00:51:26.898Z,71.67
2023-05-19T00:53:56.850Z,71.57
2023-05-19T00:56:27.973Z,72.22
2023-05-19T00:59:06.652Z,72.02
2023-05-19T01:01:39.750Z,72.28
2023-05-19T01:04:17.391Z,72.28
2023-05-19T01:06:55.001Z,72.20
2023-05-19T01:09:30.300Z,72.52
2023-05-19T01:12:02.892Z,72.92
2023-05-19T01:14:34.929Z,72.94
2023-05-19T01:17:23.464Z,72.69
2023-05-19T01:20:02.641Z,72.87
2023-05-19T01:22:43.108Z,73.00
2023-05-19T01:25:36.964Z,72.49
2023-05-19T01:28:42.265Z,72.70
2023-05-19T01:31:15.617Z,72.57
2023-05-19T01:33:49.260Z,72.81
2023-05-19T01:36:27.458Z,73.09
2023-05-19T01:39:04.914Z,73.05
2023-05-19T01:41:40.396Z,72.98
2023-05-19T01:44:10.131Z,73.82
2023-05-19T01:46:40.432Z,73.70
2023-05-19T01:49:09.640Z,74.18
2023-05-19T01:51:40.912Z,73.83
2023-05-19T01:54:11.178Z,74.64
2023-05-19T01:57:02.649Z,74.99
2023-05-19T02:00:08.379Z,75.15
2023-05-19T02:03:04.955Z,75.46
2023-05-19T02:05:59.667Z,75.66
2023-05-19T02:08:44.545Z,76.23
2023-05-19T02:11:49.754Z,76.65
2023-05-19T02:14:54.159Z,76.53
2023-05-19T02:17:29.557Z,76.89
2023-05-19T02:20:04.938Z,77.22
2023-05-19T02:22:37.879Z,77.20
2023-05-19T02:25:10.031Z,77.91
2023-05-19T02:27:39.813Z,78.20
2023-05-19T02:30:48.800Z,78.56
2023-05-19T02:33:22.635Z,78.27
2023-05-19T02:35:57.434Z,78.52
2023-05-19T02:38:29.051Z,78.79
2023-05-19T02:40:57.435Z,79.38
2023-05-19T02:43:25.992Z,79.28
2023-05-19T02:45:57.160Z,79.51
2023-05-19T02:48:25.501Z,79.47
2023-05-19T02:50:53.662Z,79.79
2023-05-19T02:53:22.040Z,79.52
2023-05-19T02:55:57.813Z,79.67
2023-05-19T02:58:26.034Z,80.00
2023-05-19T03:01:07.491Z,79.74
2023-05-19T03:03:36.336Z,79.98
2023-05-19T03:06:08.889Z,79.82
2023-05-19T03:08:37.990Z,80.14
2023-05-19T03:11:25.792Z,80.30
2023-05-19T03:13:57.578Z,80.57
2023-05-19T03:16:37.197Z,80.79
2023-05-19T03:19:14.714Z,80.63
2023-05-19T03:21:48.005Z,81.17
2023-05-19T03:24:19.346Z,81.44
2023-05-19T03:26:48.047Z,81.80
2023-05-19T03:29:16.742Z,81.50
2023-05-19T03:32:01.909Z,81.52
2023-05-19T03:34:33.023Z,81.65
2023-05-19T03:37:01.389Z,81.60
2023-05-19T03:39:30.009Z,81.51
2023-05-19T03:41:58.440Z,81.40
2023-05-19T03:44:26.862Z,81.36
2023-05-19T03:46:55.719Z,81.47
2023-05-19T03:49:29.430Z,81.16
2023-05-19T03:52:10.225Z,81.33
2023-05-19T03:54:58.995Z,81.40
2023-05-19T03:57:29.623Z,81.28
2023-05-19T03:59:57.786Z,81.36
2023-05-19T04:02:26.198Z,81.14
2023-05-19T04:05:30.786Z,81.55
2023-05-19T04:08:00.991Z,81.59
2023-05-19T04:10:47.423Z,81.66
2023-05-19T04:13:31.848Z,81.77
2023-05-19T04:16:03.677Z,81.91
2023-05-19T04:18:35.314Z,81.99
2023-05-19T04:21:05.105Z,82.04
2023-05-19T04:23:38.838Z,82.14
2023-05-19T04:26:12.461Z,82.65
2023-05-19T04:29:15.137Z,82.36
2023-05-19T04:31:53.333Z,82.87
2023-05-19T04:34:24.299Z,82.90
2023-05-19T04:37:04.945Z,83.01
2023-05-19T04:39:36.665Z,83.10
2023-05-19T04:42:05.297Z,83.16
2023-05-19T04:44:59.625Z,83.32
2023-05-19T04:47:35.129Z,83.39
2023-05-19T04:50:12.141Z,83.09
2023-05-19T04:52:55.992Z,83.41
2023-05-19T04:55:42.562Z,83.25
2023-05-19T04:58:48.650Z,83.15
2023-05-19T05:01:27.547Z,83.25
2023-05-19T05:04:03.196Z,82.87
2023-05-19T05:06:38.839Z,83.01
2023-05-19T05:09:12.648Z,82.96
2023-05-19T05:11:44.784Z,82.76
2023-05-19T05:14:13.731Z,82.70
2023-05-19T05:17:11.423Z,82.69
2023-05-19T05:19:55.849Z,82.56
2023-05-19T05:23:10.128Z,82.44
2023-05-19T05:26:12.960Z,82.45
2023-05-19T05:29:15.029Z,82.30
2023-05-19T05:32:25.973Z,82.37
2023-05-19T05:35:07.886Z,82.40
2023-05-19T05:38:18.617Z,82.07
2023-05-19T05:40:58.158Z,81.97
2023-05-19T05:43:32.818Z,81.85
2023-05-19T05:46:43.333Z,81.76
2023-05-19T05:50:07.917Z,81.64
2023-05-19T05:52:44.000Z,81.73
2023-05-19T05:55:17.828Z,81.08
2023-05-19T05:58:05.864Z,81.21
2023-05-19T06:00:37.009Z,81.47
2023-05-19T06:03:06.051Z,81.53
2023-05-19T06:05:40.573Z,81.16
2023-05-19T06:08:09.635Z,81.21
2023-05-19T06:10:59.031Z,80.81
2023-05-19T06:13:27.499Z,80.98
2023-05-19T06:15:56.007Z,80.44
2023-05-19T06:18:25.704Z,79.92
2023-05-19T06:20:54.288Z,79.96
2023-05-19T06:23:31.416Z,79.65
2023-05-19T06:25:59.767Z,79.86
2023-05-19T06:28:31.951Z,79.36
2023-05-19T06:31:06.170Z,79.49
2023-05-19T06:33:35.402Z,78.87
2023-05-19T06:36:04.162Z,78.74
2023-05-19T06:38:32.605Z,78.40
2023-05-19T06:41:01.154Z,77.97
2023-05-19T06:43:30.430Z,77.46
2023-05-19T06:46:02.225Z,77.34
2023-05-19T06:48:31.235Z,77.69
2023-05-19T06:51:02.939Z,76.81
2023-05-19T06:53:35.419Z,76.33
2023-05-19T06:56:07.025Z,75.58
2023-05-19T06:58:35.317Z,75.01
2023-05-19T07:01:03.677Z,75.35
2023-05-19T07:03:32.650Z,74.80
2023-05-19T07:06:02.159Z,75.00
2023-05-19T07:08:31.260Z,74.19
2023-05-19T07:10:59.720Z,74.02
2023-05-19T07:13:27.935Z,74.39
2023-05-19T07:15:56.634Z,74.04
2023-05-19T07:18:25.941Z,73.63
2023-05-19T07:20:54.270Z,74.00
2023-05-19T07:23:22.438Z,73.56
2023-05-19T07:25:56.691Z,73.46
2023-05-19T07:28:25.343Z,73.81
2023-05-19T07:30:53.512Z,73.64
2023-05-19T07:33:22.237Z,73.18
2023-05-19T07:35:54.426Z,72.22
2023-05-19T07:38:24.779Z,72.10
2023-05-19T07:40:56.461Z,71.41
2023-05-19T07:43:27.998Z,70.29
2023-05-19T07:45:57.098Z,69.50
2023-05-19T07:48:32.876Z,68.35
2023-05-19T07:51:02.332Z,66.08
2023-05-19T07:53:31.269Z,66.12
2023-05-19T07:56:00.022Z,66.52
2023-05-19T07:58:36.577Z,66.21
2023-05-19T08:01:05.235Z,65.74
2023-05-19T08:03:34.199Z,65.03
2023-05-19T08:06:03.427Z,63.82
2023-05-19T08:08:40.478Z,63.27
2023-05-19T08:11:08.961Z,62.11
2023-05-19T08:13:37.471Z,61.13
2023-05-19T08:16:08.187Z,61.54
2023-05-19T08:18:36.698Z,61.27
2023-05-19T08:21:05.659Z,61.29
2023-05-19T08:23:34.082Z,60.80
2023-05-19T08:26:02.609Z,61.37
2023-05-19T08:28:31.109Z,60.49
2023-05-19T08:31:03.035Z,60.61
2023-05-19T08:33:31.572Z,60.42
2023-05-19T08:36:02.508Z,60.69
2023-05-19T08:38:31.650Z,60.55
2023-05-19T08:41:00.176Z,59.99
2023-05-19T08:43:29.129Z,59.04
2023-05-19T08:46:00.266Z,59.06
2023-05-19T08:48:33.267Z,58.98
2023-05-19T08:51:01.521Z,58.42
2023-05-19T08:53:40.804Z,59.00
2023-05-19T08:56:12.494Z,58.31
2023-05-19T08:58:44.067Z,57.85
2023-05-19T09:01:29.551Z,57.28
2023-05-19T09:03:58.888Z,57.22
2023-05-19T09:06:36.845Z,57.09
2023-05-19T09:09:12.876Z,57.15
2023-05-19T09:11:41.343Z,56.99
2023-05-19T09:14:09.790Z,56.49
2023-05-19T09:16:38.574Z,56.34
2023-05-19T09:19:15.634Z,56.45
2023-05-19T09:21:45.950Z,55.86
2023-05-19T09:24:16.738Z,55.46
2023-05-19T09:26:45.038Z,55.13
2023-05-19T09:29:18.558Z,55.57
2023-05-19T09:32:06.468Z,55.77
2023-05-19T09:34:41.912Z,55.21
2023-05-19T09:37:13.353Z,55.51
2023-05-19T09:39:49.540Z,55.13
2023-05-19T09:42:30.303Z,55.22
2023-05-19T09:45:05.357Z,55.19
2023-05-19T09:48:00.627Z,55.66
2023-05-19T09:50:48.466Z,55.31
2023-05-19T09:53:18.796Z,55.55
2023-05-19T09:55:48.021Z,54.49
2023-05-19T09:58:44.417Z,54.44
2023-05-19T10:01:23.379Z,54.50
2023-05-19T10:03:54.025Z,54.57
2023-05-19T10:06:26.422Z,54.48
2023-05-19T10:08:55.346Z,54.96
2023-05-19T10:11:28.303Z,54.97
2023-05-19T10:13:59.780Z,54.85
2023-05-19T10:16:40.404Z,55.34
2023-05-19T10:19:10.254Z,55.90
2023-05-19T10:21:39.096Z,56.18
2023-05-19T10:24:15.083Z,56.40
2023-05-19T10:26:47.748Z,56.55
2023-05-19T10:29:22.077Z,56.66
2023-05-19T10:31:53.210Z,57.39
2023-05-19T10:35:04.715Z,57.32
2023-05-19T10:38:13.255Z,56.95
2023-05-19T10:40:51.331Z,56.75
2023-05-19T10:44:01.349Z,56.49
2023-05-19T10:46:33.901Z,57.00
2023-05-19T10:49:02.461Z,57.02
2023-05-19T10:51:32.003Z,57.31
2023-05-19T10:54:11.031Z,57.39
2023-05-19T10:56:50.110Z,57.89
2023-05-19T10:59:40.122Z,58.04
2023-05-19T11:02:09.522Z,57.64
2023-05-19T11:04:51.859Z,57.87
2023-05-19T11:07:22.650Z,57.51
2023-05-19T11:09:54.748Z,57.02
2023-05-19T11:12:25.117Z,56.58
2023-05-19T11:14:55.063Z,56.10
2023-05-19T11:17:25.953Z,56.07
2023-05-19T11:19:56.204Z,55.78
2023-05-19T11:22:26.427Z,55.82
2023-05-19T11:24:55.924Z,56.14
2023-05-19T11:27:38.633Z,55.82
2023-05-19T11:30:08.345Z,56.32
2023-05-19T11:32:47.515Z,56.57
2023-05-19T11:35:19.261Z,57.34
2023-05-19T11:37:49.293Z,57.34
2023-05-19T11:40:18.753Z,57.13
2023-05-19T11:42:57.206Z,56.94
2023-05-19T11:45:26.671Z,57.04
2023-05-19T11:48:02.562Z,57.30
2023-05-19T11:50:37.303Z,57.18
2023-05-19T11:53:05.785Z,56.77
2023-05-19T11:55:48.439Z,57.48
2023-05-19T11:58:28.066Z,56.89
2023-05-19T12:00:56.776Z,57.18
2023-05-19T12:03:28.954Z,56.87
2023-05-19T12:05:57.545Z,57.02
2023-05-19T12:08:27.666Z,56.96
2023-05-19T12:10:56.967Z,56.72
2023-05-19T12:13:25.755Z,56.80
2023-05-19T12:15:54.114Z,57.14
2023-05-19T12:18:22.773Z,57.30
2023-05-19T12:20:51.262Z,57.22
2023-05-19T12:23:20.366Z,57.08
2023-05-19T12:25:49.682Z,57.07
2023-05-19T12:28:19.958Z,56.47
2023-05-19T12:30:52.404Z,55.42
2023-05-19T12:33:24.533Z,55.36
2023-05-19T12:35:55.590Z,55.13
2023-05-19T12:38:24.038Z,55.01
2023-05-19T12:40:55.359Z,54.75
2023-05-19T12:43:24.646Z,54.72
2023-05-19T12:45:55.112Z,55.01
2023-05-19T12:48:23.956Z,55.20
2023-05-19T12:50:55.965Z,55.49
2023-05-19T12:53:27.944Z,55.35
2023-05-19T12:55:56.314Z,55.77
2023-05-19T12:58:34.103Z,55.93
2023-05-19T13:01:02.615Z,55.91
2023-05-19T13:03:31.188Z,56.10
2023-05-19T13:06:00.142Z,56.32
2023-05-19T13:08:31.622Z,56.22
2023-05-19T13:10:59.806Z,56.34
2023-05-19T13:13:28.516Z,56.45
2023-05-19T13:15:56.887Z,57.11
2023-05-19T13:18:27.678Z,57.49
2023-05-19T13:21:05.896Z,57.75
2023-05-19T13:23:37.523Z,57.82
2023-05-19T13:26:06.681Z,57.89
2023-05-19T13:28:35.153Z,57.93
2023-05-19T13:31:03.507Z,57.74
2023-05-19T13:33:35.877Z,57.36
2023-05-19T13:36:04.683Z,57.50
2023-05-19T13:38:35.859Z,57.75
2023-05-19T13:41:04.291Z,58.08
2023-05-19T13:43:39.230Z,57.99
2023-05-19T13:46:10.604Z,58.24
2023-05-19T13:48:39.030Z,58.49
2023-05-19T13:51:07.521Z,58.28
2023-05-19T13:53:35.856Z,58.49
2023-05-19T13:56:05.228Z,58.81
2023-05-19T13:58:34.493Z,59.04
2023-05-19T14:01:03.287Z,59.29
2023-05-19T14:03:41.436Z,59.20
2023-05-19T14:06:10.535Z,59.63
2023-05-19T14:08:46.279Z,59.90
2023-05-19T14:11:21.828Z,60.28
2023-05-19T14:13:57.828Z,60.79
2023-05-19T14:16:38.203Z,60.62
2023-05-19T14:19:06.876Z,61.07
2023-05-19T14:21:36.626Z,61.21
2023-05-19T14:24:05.223Z,61.35
2023-05-19T14:26:33.966Z,61.19
2023-05-19T14:29:03.094Z,61.99
2023-05-19T14:31:33.256Z,61.88
2023-05-19T14:34:05.384Z,61.75
2023-05-19T14:36:35.421Z,61.78
2023-05-19T14:39:03.960Z,62.06
2023-05-19T14:41:32.289Z,62.36
2023-05-19T14:44:00.671Z,62.25
2023-05-19T14:46:29.467Z,62.42
2023-05-19T14:48:57.742Z,62.08
2023-05-19T14:51:26.077Z,62.47
2023-05-19T14:53:54.722Z,62.28
2023-05-19T14:56:23.524Z,62.43
2023-05-19T14:58:51.974Z,62.53
2023-05-19T15:01:20.500Z,62.36
2023-05-19T15:03:48.909Z,62.25
2023-05-19T15:06:17.379Z,62.54
2023-05-19T15:08:46.070Z,62.54
2023-05-19T15:11:14.855Z,62.78
2023-05-19T15:13:43.220Z,62.83
2023-05-19T15:18:43.640Z,63.96
2023-05-19T15:21:12.263Z,63.94
2023-05-19T15:23:40.701Z,64.55
2023-05-19T15:26:09.131Z,64.87
2023-05-19T15:28:37.436Z,65.28
2023-05-19T15:31:05.937Z,65.52
2023-05-19T15:33:34.161Z,65.62
2023-05-19T15:36:02.698Z,65.03
2023-05-19T15:38:36.520Z,65.20
2023-05-19T15:41:08.931Z,65.51
2023-05-19T15:43:41.578Z,65.75
2023-05-19T15:46:11.434Z,65.69
2023-05-19T15:48:40.456Z,65.69
2023-05-19T15:51:08.747Z,66.57
2023-05-19T15:53:38.156Z,66.46
2023-05-19T15:56:06.911Z,66.32
2023-05-19T15:58:43.646Z,66.30
2023-05-19T16:01:12.215Z,66.48
2023-05-19T16:03:40.701Z,66.47
2023-05-19T16:06:09.198Z,66.87
2023-05-19T16:08:38.328Z,66.92
2023-05-19T16:11:07.007Z,67.11
2023-05-19T16:13:35.354Z,67.31
2023-05-19T16:16:03.897Z,67.56
2023-05-19T16:18:32.707Z,67.81
2023-05-19T16:21:01.735Z,68.06
2023-05-19T16:23:30.808Z,68.25
2023-05-19T16:25:59.137Z,68.36
2023-05-19T16:28:28.293Z,68.15
2023-05-19T16:31:00.436Z,68.31
2023-05-19T16:33:30.215Z,68.77
2023-05-19T16:36:00.107Z,68.98
2023-05-19T16:38:28.474Z,68.70
2023-05-19T16:40:56.865Z,69.30
2023-05-19T16:43:25.120Z,68.97
2023-05-19T16:45:53.505Z,69.25
2023-05-19T16:48:21.911Z,69.34
2023-05-19T16:50:50.736Z,69.90
2023-05-19T16:53:19.370Z,69.79
2023-05-19T16:55:47.657Z,70.24
2023-05-19T16:58:16.477Z,70.27
2023-05-19T17:00:44.821Z,70.51
2023-05-19T17:03:13.267Z,70.55
2023-05-19T17:05:43.605Z,70.87
2023-05-19T17:08:12.875Z,70.74
2023-05-19T17:10:41.317Z,70.77
2023-05-19T17:13:11.393Z,71.09
2023-05-19T17:15:42.272Z,70.87
2023-05-19T17:18:45.025Z,71.25
2023-05-19T17:21:13.676Z,71.56
2023-05-19T17:24:14.979Z,71.31
2023-05-19T17:26:43.262Z,71.39
2023-05-19T17:29:14.876Z,71.75
2023-05-19T17:32:12.594Z,71.76
2023-05-19T17:34:40.971Z,71.93
2023-05-19T17:37:23.678Z,72.06
2023-05-19T17:39:54.193Z,72.37
2023-05-19T17:42:22.553Z,72.71
2023-05-19T17:44:51.138Z,72.83
2023-05-19T17:47:19.435Z,73.16
2023-05-19T17:49:48.092Z,73.64
2023-05-19T17:52:26.065Z,73.56
2023-05-19T17:54:54.792Z,73.47
2023-05-19T17:57:26.629Z,73.61
2023-05-19T17:59:55.506Z,73.76
2023-05-19T18:02:24.649Z,74.07
2023-05-19T18:04:53.947Z,74.08
2023-05-19T18:07:42.649Z,74.25
2023-05-19T18:10:14.346Z,74.58
2023-05-19T18:12:45.718Z,74.70
2023-05-19T18:15:25.791Z,74.50
2023-05-19T18:18:51.864Z,74.85
2023-05-19T18:22:07.144Z,75.31
2023-05-19T18:24:35.483Z,75.79
2023-05-19T18:27:03.928Z,75.41
2023-05-19T18:29:34.408Z,75.75
2023-05-19T18:32:03.498Z,75.98
2023-05-19T18:34:32.322Z,76.09
2023-05-19T18:37:03.655Z,76.09
2023-05-19T18:39:32.288Z,76.29
2023-05-19T18:42:12.438Z,76.72
2023-05-19T18:44:43.533Z,76.70
2023-05-19T18:47:12.302Z,76.44
2023-05-19T18:49:44.045Z,76.49
2023-05-19T18:52:33.306Z,76.75
2023-05-19T18:55:11.421Z,76.97
2023-05-19T18:57:40.235Z,76.87
2023-05-19T19:00:09.285Z,77.13
2023-05-19T19:02:40.191Z,77.23
2023-05-19T19:05:11.938Z,77.34
2023-05-19T19:07:49.446Z,77.34
2023-05-19T19:10:18.920Z,77.53
2023-05-19T19:12:47.304Z,77.46
2023-05-19T19:15:16.011Z,77.53
2023-05-19T19:17:45.443Z,77.89
2023-05-19T19:20:14.334Z,78.02
2023-05-19T19:22:43.554Z,78.55
2023-05-19T19:25:15.025Z,78.25
2023-05-19T19:27:43.499Z,78.37
2023-05-19T19:30:12.495Z,78.57
2023-05-19T19:32:41.108Z,78.67
2023-05-19T19:35:10.175Z,78.40
2023-05-19T19:37:41.083Z,78.81
2023-05-19T19:40:10.766Z,78.69
2023-05-19T19:42:40.610Z,79.09
2023-05-19T19:45:09.756Z,78.73
2023-05-19T19:47:39.357Z,79.12
2023-05-19T19:50:11.789Z,79.14
2023-05-19T19:52:40.697Z,78.75
2023-05-19T19:55:12.749Z,79.25
2023-05-19T19:57:45.189Z,79.54
2023-05-19T20:00:15.258Z,79.48
2023-05-19T20:03:02.819Z,79.69
2023-05-19T20:05:38.369Z,79.75
2023-05-19T20:08:06.588Z,79.74
2023-05-19T20:10:43.394Z,79.92
2023-05-19T20:13:11.871Z,80.10
2023-05-19T20:15:40.908Z,80.96
2023-05-19T20:18:09.907Z,80.57
2023-05-19T20:20:39.245Z,80.66
2023-05-19T20:23:08.629Z,80.78
2023-05-19T20:25:54.785Z,81.02
2023-05-19T20:28:30.909Z,80.90
2023-05-19T20:30:59.340Z,81.20
2023-05-19T20:33:37.999Z,81.25
2023-05-19T20:36:11.158Z,81.52
2023-05-19T20:38:42.598Z,81.44
2023-05-19T20:41:11.189Z,81.54
2023-05-19T20:43:40.235Z,81.56
2023-05-19T20:46:08.884Z,81.41
2023-05-19T20:48:38.005Z,81.61
2023-05-19T20:51:14.289Z,81.58
2023-05-19T20:53:45.059Z,81.70
2023-05-19T20:56:14.251Z,81.71
2023-05-19T20:58:43.197Z,81.68
2023-05-19T21:01:12.362Z,82.07
2023-05-19T21:03:46.993Z,81.81
2023-05-19T21:06:21.201Z,82.35
2023-05-19T21:08:49.584Z,82.16
2023-05-19T21:11:18.040Z,82.20
2023-05-19T21:13:51.484Z,82.41
2023-05-19T21:16:21.050Z,82.72
2023-05-19T21:19:09.978Z,82.65
2023-05-19T21:21:42.971Z,82.51
2023-05-19T21:24:23.577Z,82.41
2023-05-19T21:26:52.299Z,82.92
2023-05-19T21:29:34.596Z,82.92
2023-05-19T21:32:03.010Z,83.27
2023-05-19T21:34:31.882Z,83.85
2023-05-19T21:37:02.997Z,83.12
2023-05-19T21:39:44.529Z,83.65
2023-05-19T21:42:12.889Z,83.23
2023-05-19T21:44:41.401Z,83.69
2023-05-19T21:47:10.033Z,83.68
2023-05-19T21:49:51.559Z,83.97
2023-05-19T21:52:23.738Z,84.08
2023-05-19T21:54:56.374Z,83.88
2023-05-19T21:57:46.338Z,84.16
2023-05-19T22:00:36.545Z,84.33
2023-05-19T22:03:05.465Z,84.73
2023-05-19T22:05:55.268Z,84.51
2023-05-19T22:08:32.590Z,84.68
2023-05-19T22:11:10.348Z,84.76
2023-05-19T22:13:41.377Z,84.83
2023-05-19T22:16:15.234Z,85.00
2023-05-19T22:18:49.052Z,84.83
2023-05-19T22:21:43.078Z,85.20
2023-05-19T22:24:11.604Z,85.21
2023-05-19T22:27:00.894Z,85.49
2023-05-19T22:29:48.346Z,85.77
2023-05-19T22:32:18.633Z,85.94
2023-05-19T22:34:52.866Z,85.87
2023-05-19T22:37:24.631Z,86.09
2023-05-19T22:40:36.408Z,86.41
2023-05-19T22:43:28.385Z,86.53
2023-05-19T22:46:09.408Z,86.74
2023-05-19T22:49:07.391Z,86.74
2023-05-19T22:51:56.148Z,86.84
2023-05-19T22:54:33.534Z,87.29
2023-05-19T22:57:03.519Z,87.05
2023-05-19T22:59:41.628Z,87.35
2023-05-19T23:02:13.548Z,87.47
2023-05-19T23:04:51.800Z,87.36
2023-05-19T23:07:23.675Z,87.54
2023-05-19T23:10:01.586Z,87.57
2023-05-19T23:12:30.312Z,88.19
2023-05-19T23:14:58.679Z,88.25
2023-05-19T23:17:36.326Z,88.33
2023-05-19T23:20:14.084Z,88.06
2023-05-19T23:22:43.651Z,88.25
2023-05-19T23:25:11.907Z,88.53
2023-05-19T23:28:15.119Z,88.60
2023-05-19T23:31:07.011Z,88.61
2023-05-19T23:33:35.515Z,88.69
2023-05-19T23:36:10.813Z,89.32
2023-05-19T23:38:39.759Z,88.93
2023-05-19T23:41:08.478Z,89.39
2023-05-19T23:43:38.096Z,89.45
2023-05-19T23:46:07.919Z,89.77
2023-05-19T23:48:59.208Z,89.60
2023-05-19T23:51:32.626Z,89.69
2023-05-19T23:54:14.585Z,90.01
2023-05-19T23:56:56.523Z,90.08
2023-05-19T23:59:25.539Z,90.09
